Time;durP1;ratioP1;P1;durP2;ratioP2;P2;SDS_P1;SDS_P2;PMS_P1;PMS_P2;Temp;Humidity;BMP_temperature;BMP_pressure;BME280_temperature;BME280_humidity;BME280_pressure;Samples;Min_cycle;Max_cycle;Signal;HPM_P1;HPM_P2
2023/05/31 00:00:13;;;;;;;11.10;8.43;;;;;;;;;;5093089;28;20192;-71
2023/05/31 00:02:39;;;;;;;10.07;9.07;;;;;;;;;;5091992;28;20177;-70
2023/05/31 00:05:05;;;;;;;10.43;8.20;;;;;;;;;;5093329;28;20206;-70
2023/05/31 00:07:31;;;;;;;10.50;9.10;;;;;;;;;;5093707;28;20177;-70
2023/05/31 00:09:57;;;;;;;11.10;8.63;;;;;;;;;;5093266;28;20216;-70
2023/05/31 00:12:23;;;;;;;9.20;8.30;;;;;;;;;;5093751;28;20198;-70
2023/05/31 00:14:49;;;;;;;9.93;8.93;;;;;;;;;;5093152;28;20212;-70
2023/05/31 00:17:15;;;;;;;9.13;8.23;;;;;;;;;;5096158;28;20200;-70
2023/05/31 00:19:41;;;;;;;10.03;8.57;;;;;;;;;;5096866;28;20222;-69
2023/05/31 00:22:07;;;;;;;11.57;8.30;;;;;;;;;;5096816;28;20553;-70
2023/05/31 00:24:33;;;;;;;9.57;8.50;;;;;;;;;;5096895;28;20177;-70
2023/05/31 00:27:00;;;;;;;8.53;7.73;;;;;;;;;;5096685;28;20177;-70
2023/05/31 00:29:26;;;;;;;9.50;8.50;;;;;;;;;;5095422;28;20188;-70
2023/05/31 00:31:52;;;;;;;9.70;8.70;;;;;;;;;;5095264;28;20262;-70
2023/05/31 00:34:18;;;;;;;11.10;8.70;;;;;;;;;;5096288;28;20689;-70
2023/05/31 00:36:44;;;;;;;10.40;8.47;;;;;;;;;;5096878;28;20169;-70
2023/05/31 00:39:10;;;;;;;9.63;8.13;;;;;;;;;;5096551;28;20177;-70
2023/05/31 00:41:36;;;;;;;9.20;7.83;;;;;;;;;;5096435;28;20201;-70
2023/05/31 00:44:02;;;;;;;9.60;8.53;;;;;;;;;;5096402;28;20243;-69
2023/05/31 00:46:36;;;;;;;10.67;8.03;;;;;;;;;;5095397;28;20265;-69
2023/05/31 00:49:03;;;;;;;14.27;9.10;;;;;;;;;;5095472;28;20181;-70
2023/05/31 00:51:31;;;;;;;10.87;9.53;;;;;;;;;;5096524;28;20229;-70
2023/05/31 00:53:57;;;;;;;12.33;10.00;;;;;;;;;;5095413;28;20204;-70
2023/05/31 00:56:23;;;;;;;18.20;13.83;;;;;;;;;;5095316;28;20189;-69
2023/05/31 00:58:52;;;;;;;12.87;11.33;;;;;;;;;;5095321;28;20623;-70
2023/05/31 01:01:18;;;;;;;20.83;16.80;;;;;;;;;;5096265;28;20189;-70
2023/05/31 01:03:44;;;;;;;16.43;14.67;;;;;;;;;;5096439;28;20188;-70
2023/05/31 01:06:11;;;;;;;19.80;14.60;;;;;;;;;;5094844;28;20212;-70
2023/05/31 01:08:37;;;;;;;14.90;12.43;;;;;;;;;;5094593;28;20199;-70
2023/05/31 01:11:10;;;;;;;17.07;12.40;;;;;;;;;;5095882;28;20686;-70
2023/05/31 01:13:44;;;;;;;13.93;10.20;;;;;;;;;;5096026;28;20242;-69
2023/05/31 01:16:10;;;;;;;10.27;9.07;;;;;;;;;;5094482;28;20169;-70
2023/05/31 01:18:41;;;;;;;10.77;8.03;;;;;;;;;;5094323;28;20181;-69
2023/05/31 01:21:07;;;;;;;10.13;8.87;;;;;;;;;;5094338;28;20197;-70
2023/05/31 01:23:48;;;;;;;10.40;8.90;;;;;;;;;;5094424;28;20181;-70
2023/05/31 01:26:22;;;;;;;9.20;8.40;;;;;;;;;;5095435;28;20529;-70
2023/05/31 01:28:52;;;;;;;9.67;8.67;;;;;;;;;;5094227;28;20231;-70
2023/05/31 01:31:20;;;;;;;10.03;8.47;;;;;;;;;;5095409;28;20200;-70
2023/05/31 01:33:47;;;;;;;10.63;8.83;;;;;;;;;;5095247;28;20698;-69
2023/05/31 01:36:13;;;;;;;10.03;9.03;;;;;;;;;;5095426;28;20177;-70
2023/05/31 01:38:39;;;;;;;11.57;8.57;;;;;;;;;;5094037;28;20177;-69
2023/05/31 01:41:06;;;;;;;9.37;8.43;;;;;;;;;;5095220;28;20197;-70
2023/05/31 01:43:32;;;;;;;10.07;8.90;;;;;;;;;;5093965;28;20177;-70
2023/05/31 01:45:58;;;;;;;11.40;9.03;;;;;;;;;;5094003;28;20187;-70
2023/05/31 01:48:25;;;;;;;10.77;9.10;;;;;;;;;;5094103;28;20621;-70
2023/05/31 01:50:51;;;;;;;12.50;9.37;;;;;;;;;;5095070;28;20200;-69
2023/05/31 01:53:17;;;;;;;9.87;8.83;;;;;;;;;;5095056;28;20177;-70
2023/05/31 01:55:43;;;;;;;10.27;8.80;;;;;;;;;;5093675;28;20183;-69
2023/05/31 01:58:10;;;;;;;12.30;9.23;;;;;;;;;;5094867;28;20255;-70
2023/05/31 02:00:36;;;;;;;14.43;9.20;;;;;;;;;;5093606;28;20198;-69
2023/05/31 02:03:03;;;;;;;10.93;9.57;;;;;;;;;;5093599;28;20177;-70
2023/05/31 02:05:28;;;;;;;9.90;8.90;;;;;;;;;;5093539;28;20217;-70
2023/05/31 02:07:55;;;;;;;10.73;9.63;;;;;;;;;;5093440;28;20193;-70
2023/05/31 02:10:21;;;;;;;12.63;9.73;;;;;;;;;;5093408;28;20251;-70
2023/05/31 02:12:50;;;;;;;16.27;9.80;;;;;;;;;;5093452;28;20177;-70
2023/05/31 02:15:19;;;;;;;10.87;9.87;;;;;;;;;;5093346;28;20334;-70
2023/05/31 02:17:46;;;;;;;14.93;9.50;;;;;;;;;;5093348;28;20643;-70
2023/05/31 02:20:13;;;;;;;9.63;8.57;;;;;;;;;;5094554;28;20609;-70
2023/05/31 02:22:43;;;;;;;10.70;9.60;;;;;;;;;;5094552;28;20173;-70
2023/05/31 02:25:10;;;;;;;12.43;9.83;;;;;;;;;;5093311;28;20181;-70
2023/05/31 02:27:36;;;;;;;10.83;9.70;;;;;;;;;;5094353;28;20184;-70
2023/05/31 02:30:03;;;;;;;10.60;9.50;;;;;;;;;;5095123;28;20240;-70
2023/05/31 02:32:31;;;;;;;11.00;9.93;;;;;;;;;;5094357;28;20554;-70
2023/05/31 02:34:57;;;;;;;11.67;9.87;;;;;;;;;;5093006;28;20208;-70
2023/05/31 02:37:23;;;;;;;12.10;9.47;;;;;;;;;;5095175;28;20533;-70
2023/05/31 02:39:49;;;;;;;11.73;9.47;;;;;;;;;;5092544;28;20197;-70
2023/05/31 02:42:15;;;;;;;10.37;9.07;;;;;;;;;;5094931;28;20256;-69
2023/05/31 02:44:40;;;;;;;11.60;10.23;;;;;;;;;;5093307;28;20271;-70
2023/05/31 02:47:06;;;;;;;12.87;10.60;;;;;;;;;;5093234;28;20233;-70
2023/05/31 02:49:32;;;;;;;13.20;10.17;;;;;;;;;;5092761;28;20189;-70
2023/05/31 02:51:58;;;;;;;11.37;10.07;;;;;;;;;;5094042;28;20727;-70
2023/05/31 02:54:24;;;;;;;10.80;9.70;;;;;;;;;;5092616;28;20201;-70
2023/05/31 02:56:51;;;;;;;11.60;8.97;;;;;;;;;;5092683;28;20181;-69
2023/05/31 02:59:17;;;;;;;11.33;10.13;;;;;;;;;;5092598;28;20169;-69
2023/05/31 03:01:43;;;;;;;12.03;10.30;;;;;;;;;;5092448;28;20249;-70
2023/05/31 03:04:09;;;;;;;11.80;10.10;;;;;;;;;;5092434;28;20187;-70
2023/05/31 03:06:35;;;;;;;14.03;10.30;;;;;;;;;;5093911;28;20180;-70
2023/05/31 03:09:00;;;;;;;11.47;9.90;;;;;;;;;;5092281;28;20554;-70
2023/05/31 03:11:26;;;;;;;11.87;10.37;;;;;;;;;;5093584;28;20705;-70
2023/05/31 03:13:52;;;;;;;11.90;10.70;;;;;;;;;;5092290;28;20358;-70
2023/05/31 03:16:20;;;;;;;11.57;10.27;;;;;;;;;;5093528;28;20174;-70
2023/05/31 03:18:46;;;;;;;11.80;10.50;;;;;;;;;;5092212;28;20267;-69
2023/05/31 03:21:12;;;;;;;13.00;11.03;;;;;;;;;;5092099;28;20199;-69
2023/05/31 03:23:38;;;;;;;14.53;11.40;;;;;;;;;;5092198;28;20181;-70
2023/05/31 03:26:04;;;;;;;16.60;11.63;;;;;;;;;;5092080;28;20181;-70
2023/05/31 03:28:30;;;;;;;19.77;12.13;;;;;;;;;;5093374;28;20564;-69
2023/05/31 03:30:56;;;;;;;16.33;11.50;;;;;;;;;;5093500;28;20197;-69
2023/05/31 03:33:22;;;;;;;16.33;12.57;;;;;;;;;;5092950;28;20196;-70
2023/05/31 03:35:48;;;;;;;15.57;12.23;;;;;;;;;;5093292;28;20657;-70
2023/05/31 03:38:14;;;;;;;14.10;11.17;;;;;;;;;;5093256;28;20173;-70
2023/05/31 03:40:40;;;;;;;13.77;11.27;;;;;;;;;;5093284;28;20193;-70
2023/05/31 03:43:06;;;;;;;15.57;11.63;;;;;;;;;;5091942;28;20176;-70
2023/05/31 03:45:32;;;;;;;14.57;11.13;;;;;;;;;;5093150;28;20215;-70
2023/05/31 03:47:58;;;;;;;16.07;11.60;;;;;;;;;;5093155;28;20173;-70
2023/05/31 03:50:24;;;;;;;13.13;11.07;;;;;;;;;;5094807;28;20576;-69
2023/05/31 03:52:50;;;;;;;15.37;11.63;;;;;;;;;;5096198;28;20564;-70
2023/05/31 03:55:16;;;;;;;14.10;11.77;;;;;;;;;;5095910;28;20268;-70
2023/05/31 03:57:42;;;;;;;14.17;11.87;;;;;;;;;;5097236;28;20169;-70
2023/05/31 04:00:11;;;;;;;11.87;10.67;;;;;;;;;;5095827;28;20334;-70
2023/05/31 04:02:37;;;;;;;16.33;11.47;;;;;;;;;;5096462;28;20639;-70
2023/05/31 04:05:04;;;;;;;13.90;11.77;;;;;;;;;;5095793;28;20177;-70
2023/05/31 04:07:30;;;;;;;13.40;11.90;;;;;;;;;;5097094;28;20623;-69
2023/05/31 04:09:56;;;;;;;15.17;12.47;;;;;;;;;;5097228;28;20235;-70
2023/05/31 04:12:22;;;;;;;16.23;13.00;;;;;;;;;;5097243;28;20181;-69
2023/05/31 04:14:48;;;;;;;14.70;12.50;;;;;;;;;;5095537;28;20211;-69
2023/05/31 04:17:14;;;;;;;13.50;12.10;;;;;;;;;;5095702;28;20173;-70
2023/05/31 04:19:40;;;;;;;16.87;12.40;;;;;;;;;;5095512;28;20534;-69
2023/05/31 04:22:06;;;;;;;17.67;13.57;;;;;;;;;;5096907;28;20231;-70
2023/05/31 04:24:32;;;;;;;20.23;13.23;;;;;;;;;;5096841;28;20233;-69
2023/05/31 04:26:58;;;;;;;13.80;11.83;;;;;;;;;;5097007;28;20184;-69
2023/05/31 04:29:26;;;;;;;14.97;12.13;;;;;;;;;;5097281;28;20186;-69
2023/05/31 04:31:52;;;;;;;16.63;12.70;;;;;;;;;;5096781;28;20212;-69
2023/05/31 04:34:18;;;;;;;17.60;13.20;;;;;;;;;;5096490;28;20686;-70
2023/05/31 04:36:48;;;;;;;16.57;13.57;;;;;;;;;;5096638;28;20169;-69
2023/05/31 04:39:15;;;;;;;17.90;13.63;;;;;;;;;;5095310;28;20177;-69
2023/05/31 04:41:41;;;;;;;20.30;14.07;;;;;;;;;;5096314;28;20189;-70
2023/05/31 04:44:07;;;;;;;19.03;14.80;;;;;;;;;;5096729;28;20521;-70
2023/05/31 04:46:33;;;;;;;17.80;13.10;;;;;;;;;;5095104;28;20183;-70
2023/05/31 04:49:00;;;;;;;17.23;12.83;;;;;;;;;;5095134;28;20177;-70
2023/05/31 04:51:26;;;;;;;23.03;12.33;;;;;;;;;;5096177;28;20193;-70
2023/05/31 04:53:52;;;;;;;18.93;11.93;;;;;;;;;;5096139;28;20678;-69
2023/05/31 04:56:18;;;;;;;13.80;11.30;;;;;;;;;;5094814;28;20177;-70
2023/05/31 04:58:45;;;;;;;20.20;11.43;;;;;;;;;;5096084;28;20180;-70
2023/05/31 05:01:14;;;;;;;15.80;11.00;;;;;;;;;;5095549;28;20667;-70
2023/05/31 05:03:41;;;;;;;19.13;10.83;;;;;;;;;;5094453;28;20276;-70
2023/05/31 05:06:16;;;;;;;11.30;10.10;;;;;;;;;;5094834;28;20181;-70
2023/05/31 05:08:43;;;;;;;12.80;10.10;;;;;;;;;;5094617;28;20188;-69
2023/05/31 05:11:09;;;;;;;16.80;11.07;;;;;;;;;;5095958;28;20224;-69
2023/05/31 05:13:35;;;;;;;20.43;11.40;;;;;;;;;;5095883;28;20181;-70
2023/05/31 05:16:02;;;;;;;16.57;12.53;;;;;;;;;;5094736;28;20523;-70
2023/05/31 05:18:28;;;;;;;19.43;12.77;;;;;;;;;;5094691;28;20612;-70
2023/05/31 05:20:54;;;;;;;20.13;13.07;;;;;;;;;;5094741;28;20208;-70
2023/05/31 05:23:21;;;;;;;17.07;13.77;;;;;;;;;;5096288;28;20177;-69
2023/05/31 05:25:46;;;;;;;18.83;12.93;;;;;;;;;;5095946;28;20640;-70
2023/05/31 05:28:12;;;;;;;21.00;12.60;;;;;;;;;;5096049;28;20264;-69
2023/05/31 05:30:38;;;;;;;19.63;13.33;;;;;;;;;;5095516;28;20197;-70
2023/05/31 05:33:04;;;;;;;20.27;13.50;;;;;;;;;;5095811;28;20192;-69
2023/05/31 05:35:30;;;;;;;19.23;13.63;;;;;;;;;;5094067;28;20201;-69
2023/05/31 05:37:57;;;;;;;17.90;12.10;;;;;;;;;;5095325;28;20551;-69
2023/05/31 05:40:23;;;;;;;15.03;11.37;;;;;;;;;;5094026;28;20208;-69
2023/05/31 05:42:50;;;;;;;17.00;11.70;;;;;;;;;;5094000;28;20663;-69
2023/05/31 05:45:16;;;;;;;21.30;10.80;;;;;;;;;;5093969;28;20222;-70
2023/05/31 05:47:44;;;;;;;18.67;10.93;;;;;;;;;;5095181;28;20229;-69
2023/05/31 05:50:11;;;;;;;13.10;10.23;;;;;;;;;;5095024;28;20204;-69
2023/05/31 05:52:37;;;;;;;20.00;11.27;;;;;;;;;;5095065;28;20180;-69
2023/05/31 05:55:03;;;;;;;16.20;10.93;;;;;;;;;;5095027;28;20197;-69
2023/05/31 05:57:29;;;;;;;18.20;11.23;;;;;;;;;;5095178;28;20195;-69
2023/05/31 05:59:56;;;;;;;13.33;11.37;;;;;;;;;;5094935;28;20197;-69
2023/05/31 06:02:22;;;;;;;18.03;11.77;;;;;;;;;;5095279;28;20177;-69
2023/05/31 06:04:49;;;;;;;18.07;11.73;;;;;;;;;;5094811;28;20665;-69
2023/05/31 06:07:15;;;;;;;19.40;11.90;;;;;;;;;;5094874;28;20177;-69
2023/05/31 06:09:41;;;;;;;26.20;15.60;;;;;;;;;;5093423;28;20696;-69
2023/05/31 06:12:07;;;;;;;25.80;16.30;;;;;;;;;;5094801;28;20188;-69
2023/05/31 06:14:33;;;;;;;26.63;16.00;;;;;;;;;;5092324;28;20209;-69
2023/05/31 06:16:59;;;;;;;22.20;12.93;;;;;;;;;;5094709;28;20189;-70
2023/05/31 06:19:25;;;;;;;24.73;12.70;;;;;;;;;;5093317;28;20665;-69
2023/05/31 06:21:53;;;;;;;22.50;12.37;;;;;;;;;;5093423;28;20223;-69
2023/05/31 06:24:19;;;;;;;15.07;10.47;;;;;;;;;;5093624;28;20305;-69
2023/05/31 06:26:45;;;;;;;15.53;11.03;;;;;;;;;;5093176;28;20181;-70
2023/05/31 06:29:11;;;;;;;17.60;10.20;;;;;;;;;;5094472;28;20382;-69
2023/05/31 06:31:38;;;;;;;19.13;11.07;;;;;;;;;;5094500;28;20232;-69
2023/05/31 06:34:04;;;;;;;16.63;10.20;;;;;;;;;;5092895;28;20212;-69
2023/05/31 06:36:31;;;;;;;13.67;9.60;;;;;;;;;;5093008;28;20181;-70
2023/05/31 06:38:57;;;;;;;17.80;11.03;;;;;;;;;;5093000;28;20260;-69
2023/05/31 06:41:23;;;;;;;16.03;10.10;;;;;;;;;;5094250;28;20636;-69
2023/05/31 06:43:49;;;;;;;17.60;11.63;;;;;;;;;;5094526;28;20551;-69
2023/05/31 06:46:15;;;;;;;16.37;9.87;;;;;;;;;;5092937;28;20638;-69
2023/05/31 06:48:41;;;;;;;16.47;9.90;;;;;;;;;;5094053;28;20177;-69
2023/05/31 06:51:07;;;;;;;19.33;10.40;;;;;;;;;;5092743;28;20205;-69
2023/05/31 06:53:33;;;;;;;18.00;9.93;;;;;;;;;;5094207;28;20212;-69
2023/05/31 06:55:59;;;;;;;16.30;9.90;;;;;;;;;;5094049;28;20209;-70
2023/05/31 06:58:30;;;;;;;16.67;10.23;;;;;;;;;;5094291;28;20177;-69
2023/05/31 07:00:56;;;;;;;16.10;9.47;;;;;;;;;;5094355;28;20193;-69
2023/05/31 07:03:22;;;;;;;11.63;9.00;;;;;;;;;;5093096;28;20531;-69
2023/05/31 07:05:48;;;;;;;17.17;10.30;;;;;;;;;;5093102;28;20643;-69
2023/05/31 07:08:17;;;;;;;13.00;9.03;;;;;;;;;;5092818;28;20235;-69
2023/05/31 07:10:45;;;;;;;12.40;8.60;;;;;;;;;;5093993;28;20266;-69
2023/05/31 07:13:11;;;;;;;17.03;10.17;;;;;;;;;;5092420;28;20635;-69
2023/05/31 07:15:37;;;;;;;18.13;8.93;;;;;;;;;;5092135;28;20588;-69
2023/05/31 07:18:03;;;;;;;23.13;9.27;;;;;;;;;;5092272;28;20570;-69
2023/05/31 07:20:29;;;;;;;15.83;8.13;;;;;;;;;;5093450;28;20268;-70
2023/05/31 07:22:55;;;;;;;13.37;8.10;;;;;;;;;;5093434;28;20610;-69
2023/05/31 07:25:21;;;;;;;16.93;8.57;;;;;;;;;;5091903;28;20275;-69
2023/05/31 07:27:47;;;;;;;18.20;8.33;;;;;;;;;;5092211;28;20219;-69
2023/05/31 07:30:13;;;;;;;13.23;7.17;;;;;;;;;;5093598;28;20228;-70
2023/05/31 07:32:39;;;;;;;20.10;7.80;;;;;;;;;;5093322;28;20194;-70
2023/05/31 07:35:06;;;;;;;18.23;8.20;;;;;;;;;;5092696;28;20216;-70
2023/05/31 07:37:32;;;;;;;12.93;7.77;;;;;;;;;;5092540;28;20532;-70
2023/05/31 07:39:58;;;;;;;13.83;7.73;;;;;;;;;;5093944;28;20199;-69
2023/05/31 07:42:24;;;;;;;11.87;7.43;;;;;;;;;;5092402;28;20173;-69
2023/05/31 07:44:50;;;;;;;16.00;8.27;;;;;;;;;;5093704;28;20181;-70
2023/05/31 07:47:17;;;;;;;12.37;7.47;;;;;;;;;;5093391;28;20181;-70
2023/05/31 07:49:43;;;;;;;18.57;8.50;;;;;;;;;;5092384;28;20194;-69
2023/05/31 07:52:09;;;;;;;13.07;7.80;;;;;;;;;;5091906;28;20223;-70
2023/05/31 07:54:35;;;;;;;14.70;7.70;;;;;;;;;;5091750;28;20295;-70
2023/05/31 07:57:01;;;;;;;16.33;6.93;;;;;;;;;;5091896;28;20702;-70
2023/05/31 07:59:27;;;;;;;17.33;7.97;;;;;;;;;;5091698;28;20173;-70
2023/05/31 08:01:53;;;;;;;13.90;7.70;;;;;;;;;;5091657;28;20277;-70
2023/05/31 08:04:19;;;;;;;15.50;7.53;;;;;;;;;;5092911;28;20237;-70
2023/05/31 08:06:45;;;;;;;11.90;7.10;;;;;;;;;;5093379;28;20173;-69
2023/05/31 08:09:11;;;;;;;15.97;7.93;;;;;;;;;;5091752;28;20184;-69
2023/05/31 08:11:37;;;;;;;17.83;7.60;;;;;;;;;;5093304;28;20570;-69
2023/05/31 08:14:04;;;;;;;16.43;7.10;;;;;;;;;;5092909;28;20193;-69
2023/05/31 08:16:30;;;;;;;12.37;6.43;;;;;;;;;;5093191;28;20223;-70
2023/05/31 08:18:56;;;;;;;11.93;6.87;;;;;;;;;;5093092;28;20178;-70
2023/05/31 08:21:22;;;;;;;11.47;6.43;;;;;;;;;;5092793;28;20254;-69
2023/05/31 08:23:48;;;;;;;14.50;6.63;;;;;;;;;;5091648;28;20208;-70
2023/05/31 08:26:14;;;;;;;12.17;6.73;;;;;;;;;;5091633;28;20223;-70
2023/05/31 08:28:40;;;;;;;13.47;6.47;;;;;;;;;;5091680;28;20185;-69
2023/05/31 08:31:07;;;;;;;15.10;6.40;;;;;;;;;;5093040;28;20697;-69
2023/05/31 08:33:33;;;;;;;13.60;6.20;;;;;;;;;;5091874;28;20208;-69
2023/05/31 08:35:59;;;;;;;7.83;5.40;;;;;;;;;;5092794;28;20582;-69
2023/05/31 08:38:28;;;;;;;12.50;6.50;;;;;;;;;;5094572;28;20181;-69
2023/05/31 08:40:58;;;;;;;15.67;6.40;;;;;;;;;;5096529;28;20292;-69
2023/05/31 08:43:25;;;;;;;9.50;5.57;;;;;;;;;;5096294;28;20177;-69
2023/05/31 08:45:52;;;;;;;11.53;6.30;;;;;;;;;;5096526;28;20237;-69
2023/05/31 08:48:25;;;;;;;9.83;5.60;;;;;;;;;;5096252;28;20639;-68
2023/05/31 08:50:51;;;;;;;7.77;5.57;;;;;;;;;;5096488;28;20203;-69
2023/05/31 08:53:18;;;;;;;9.33;5.10;;;;;;;;;;5095086;28;20260;-69
2023/05/31 08:55:46;;;;;;;11.97;5.83;;;;;;;;;;5094801;28;20211;-69
2023/05/31 08:58:12;;;;;;;9.77;5.67;;;;;;;;;;5096184;28;20173;-69
2023/05/31 09:00:38;;;;;;;11.97;5.33;;;;;;;;;;5094811;28;20219;-69
2023/05/31 09:03:07;;;;;;;9.43;5.47;;;;;;;;;;5096103;28;20165;-69
2023/05/31 09:05:33;;;;;;;10.73;5.07;;;;;;;;;;5095927;28;20184;-69
2023/05/31 09:08:00;;;;;;;10.17;4.87;;;;;;;;;;5096236;28;20587;-69
2023/05/31 09:10:26;;;;;;;11.77;5.70;;;;;;;;;;5095881;28;20326;-69
2023/05/31 09:12:53;;;;;;;6.13;4.53;;;;;;;;;;5094574;28;20271;-69
2023/05/31 09:15:22;;;;;;;11.20;4.73;;;;;;;;;;5095766;28;20670;-69
2023/05/31 09:17:48;;;;;;;10.80;5.07;;;;;;;;;;5096369;28;20266;-69
2023/05/31 09:20:14;;;;;;;11.57;4.70;;;;;;;;;;5095641;28;20681;-69
2023/05/31 09:22:40;;;;;;;7.10;4.33;;;;;;;;;;5095938;28;20221;-69
2023/05/31 09:25:07;;;;;;;9.07;4.30;;;;;;;;;;5095957;28;20177;-69
2023/05/31 09:27:39;;;;;;;6.53;3.67;;;;;;;;;;5095622;28;20172;-69
2023/05/31 09:30:12;;;;;;;12.10;5.23;;;;;;;;;;5095986;28;20197;-69
2023/05/31 09:32:38;;;;;;;14.70;4.57;;;;;;;;;;5095816;28;20165;-69
2023/05/31 09:35:17;;;;;;;8.10;4.10;;;;;;;;;;5113115;22;20236;-66
2023/05/31 09:37:44;;;;;;;15.10;4.90;;;;;;;;;;5075763;28;20178;-66
2023/05/31 09:40:10;;;;;;;8.03;4.47;;;;;;;;;;5076047;28;20178;-66
2023/05/31 09:42:36;;;;;;;7.43;4.20;;;;;;;;;;5075606;28;20209;-66
2023/05/31 09:45:04;;;;;;;7.17;3.33;;;;;;;;;;5081819;28;20193;-66
2023/05/31 09:47:30;;;;;;;13.10;4.00;;;;;;;;;;5095434;28;20181;-66
2023/05/31 09:49:56;;;;;;;10.67;4.00;;;;;;;;;;5095708;28;20260;-66
2023/05/31 09:52:32;;;;;;;9.17;4.13;;;;;;;;;;5095893;28;20181;-66
2023/05/31 09:55:05;;;;;;;8.53;4.17;;;;;;;;;;5095587;28;20239;-67
2023/05/31 09:57:32;;;;;;;8.87;3.93;;;;;;;;;;5095700;28;20169;-67
2023/05/31 10:00:04;;;;;;;7.20;3.93;;;;;;;;;;5094151;28;20188;-67
2023/05/31 10:02:30;;;;;;;11.90;4.27;;;;;;;;;;5095664;28;20173;-67
2023/05/31 10:04:56;;;;;;;7.10;3.63;;;;;;;;;;5095211;28;20322;-66
2023/05/31 10:07:23;;;;;;;9.53;3.50;;;;;;;;;;5095124;28;20181;-66
2023/05/31 10:09:49;;;;;;;10.33;3.40;;;;;;;;;;5095703;28;20209;-66
2023/05/31 10:12:17;;;;;;;6.40;3.57;;;;;;;;;;5094944;28;20238;-67
2023/05/31 10:14:47;;;;;;;8.00;3.40;;;;;;;;;;5093283;28;20213;-67
2023/05/31 10:17:14;;;;;;;11.40;3.27;;;;;;;;;;5095092;28;20542;-66
2023/05/31 10:19:42;;;;;;;16.73;4.00;;;;;;;;;;5093596;28;20185;-66
2023/05/31 10:22:08;;;;;;;8.53;3.20;;;;;;;;;;5093576;28;20234;-67
2023/05/31 10:24:51;;;;;;;6.83;3.20;;;;;;;;;;5095095;28;20177;-67
2023/05/31 10:27:19;;;;;;;7.53;3.20;;;;;;;;;;5093570;28;20179;-66
2023/05/31 10:29:52;;;;;;;12.17;3.60;;;;;;;;;;5093360;28;20178;-66
2023/05/31 10:32:20;;;;;;;4.60;2.97;;;;;;;;;;5094518;28;20730;-66
2023/05/31 10:34:46;;;;;;;9.73;3.57;;;;;;;;;;5094271;28;20236;-66
2023/05/31 10:37:13;;;;;;;9.17;3.37;;;;;;;;;;5094942;28;20161;-66
2023/05/31 10:39:45;;;;;;;10.33;3.70;;;;;;;;;;5094916;28;20188;-66
2023/05/31 10:42:24;;;;;;;6.63;3.03;;;;;;;;;;5094270;28;20182;-66
2023/05/31 10:44:53;;;;;;;5.23;2.73;;;;;;;;;;5094344;28;20219;-66
2023/05/31 10:47:20;;;;;;;6.50;3.33;;;;;;;;;;5093268;28;20181;-66
2023/05/31 10:49:47;;;;;;;11.70;3.83;;;;;;;;;;5093548;28;20181;-65
2023/05/31 10:52:14;;;;;;;10.20;3.50;;;;;;;;;;5095710;28;20552;-65
2023/05/31 10:54:40;;;;;;;5.33;2.90;;;;;;;;;;5094804;28;20200;-65
2023/05/31 10:57:07;;;;;;;8.67;3.17;;;;;;;;;;5094430;28;20180;-65
2023/05/31 10:59:42;;;;;;;6.83;3.33;;;;;;;;;;5095273;28;20546;-65
2023/05/31 11:02:12;;;;;;;9.53;3.73;;;;;;;;;;5093200;28;20238;-65
2023/05/31 11:04:38;;;;;;;6.80;3.63;;;;;;;;;;5093325;28;20209;-66
2023/05/31 11:07:12;;;;;;;5.17;3.10;;;;;;;;;;5094820;28;20260;-66
2023/05/31 11:09:39;;;;;;;4.97;2.97;;;;;;;;;;5094333;28;20208;-65
2023/05/31 11:12:05;;;;;;;8.53;3.17;;;;;;;;;;5094238;28;20721;-66
2023/05/31 11:14:32;;;;;;;7.63;2.87;;;;;;;;;;5094247;28;20214;-65
2023/05/31 11:17:03;;;;;;;7.40;3.20;;;;;;;;;;5094720;28;20226;-66
2023/05/31 11:19:30;;;;;;;9.63;3.77;;;;;;;;;;5094505;28;20181;-65
2023/05/31 11:21:59;;;;;;;16.63;3.97;;;;;;;;;;5096169;28;20184;-65
2023/05/31 11:24:36;;;;;;;4.30;3.00;;;;;;;;;;5092802;28;20184;-65
2023/05/31 11:27:03;;;;;;;6.00;3.17;;;;;;;;;;5092940;28;20172;-66
2023/05/31 11:29:44;;;;;;;7.22;3.30;;;;;;;;;;5092615;28;20401;-65
2023/05/31 11:32:11;;;;;;;7.10;3.33;;;;;;;;;;5092446;28;20267;-66
2023/05/31 11:34:48;;;;;;;10.07;2.93;;;;;;;;;;5093438;28;20224;-65
2023/05/31 11:37:15;;;;;;;5.63;3.17;;;;;;;;;;5094173;28;20520;-65
2023/05/31 11:39:44;;;;;;;5.77;2.90;;;;;;;;;;5092368;28;20173;-66
2023/05/31 11:42:11;;;;;;;4.17;2.93;;;;;;;;;;5093751;28;20225;-66
2023/05/31 11:44:41;;;;;;;10.20;3.13;;;;;;;;;;5093403;28;20169;-65
2023/05/31 11:47:10;;;;;;;8.50;3.23;;;;;;;;;;5093967;28;20532;-66
2023/05/31 11:49:36;;;;;;;5.60;2.87;;;;;;;;;;5092029;28;20185;-65
2023/05/31 11:52:03;;;;;;;5.87;3.13;;;;;;;;;;5092212;28;20747;-65
2023/05/31 11:54:29;;;;;;;5.73;2.97;;;;;;;;;;5093374;28;20203;-65
2023/05/31 11:57:03;;;;;;;5.03;2.73;;;;;;;;;;5091998;28;20268;-65
2023/05/31 11:59:32;;;;;;;8.53;3.10;;;;;;;;;;5094337;28;20503;-66
2023/05/31 12:01:59;;;;;;;6.72;3.30;;;;;;;;;;5090544;28;20952;-65
2023/05/31 12:04:32;;;;;;;11.47;4.17;;;;;;;;;;5091884;28;20530;-65
2023/05/31 12:06:58;;;;;;;10.87;3.10;;;;;;;;;;5092080;28;20215;-65
2023/05/31 12:09:28;;;;;;;7.77;3.20;;;;;;;;;;5093730;28;20173;-65
2023/05/31 12:11:55;;;;;;;10.10;3.83;;;;;;;;;;5093240;28;20439;-65
2023/05/31 12:14:22;;;;;;;5.77;3.30;;;;;;;;;;5095832;28;20201;-65
2023/05/31 12:16:51;;;;;;;5.93;3.10;;;;;;;;;;5095996;28;20169;-65
2023/05/31 12:19:17;;;;;;;6.57;2.53;;;;;;;;;;5097129;28;20203;-66
2023/05/31 12:21:43;;;;;;;6.60;2.87;;;;;;;;;;5095816;28;20181;-65
2023/05/31 12:24:13;;;;;;;6.03;2.97;;;;;;;;;;5095841;28;20185;-65
2023/05/31 12:26:39;;;;;;;6.73;2.80;;;;;;;;;;5096986;28;20567;-65
2023/05/31 12:29:06;;;;;;;11.53;3.00;;;;;;;;;;5096922;28;20181;-65
2023/05/31 12:31:34;;;;;;;6.90;3.47;;;;;;;;;;5097119;28;20176;-65
2023/05/31 12:34:07;;;;;;;8.17;2.90;;;;;;;;;;5096791;28;20212;-66
2023/05/31 12:36:39;;;;;;;5.50;2.50;;;;;;;;;;5096640;28;20592;-65
2023/05/31 12:39:09;;;;;;;4.33;2.60;;;;;;;;;;5096798;28;20248;-65
2023/05/31 12:41:35;;;;;;;8.90;3.17;;;;;;;;;;5096997;28;20752;-65
2023/05/31 12:44:01;;;;;;;5.53;2.87;;;;;;;;;;5095447;28;20634;-65
2023/05/31 12:46:27;;;;;;;6.17;3.37;;;;;;;;;;5096765;28;20201;-66
2023/05/31 12:48:53;;;;;;;7.23;3.17;;;;;;;;;;5096481;28;20177;-65
2023/05/31 12:51:23;;;;;;;5.13;3.03;;;;;;;;;;5095167;28;20183;-66
2023/05/31 12:53:49;;;;;;;9.23;3.37;;;;;;;;;;5096400;28;20181;-66
2023/05/31 12:56:15;;;;;;;9.30;3.43;;;;;;;;;;5096564;28;20196;-66
2023/05/31 12:58:42;;;;;;;6.93;3.07;;;;;;;;;;5096395;28;20170;-64
2023/05/31 13:01:08;;;;;;;8.33;2.97;;;;;;;;;;5095182;28;20181;-65
2023/05/31 13:03:34;;;;;;;6.07;2.93;;;;;;;;;;5096670;28;20177;-66
2023/05/31 13:06:00;;;;;;;6.33;2.83;;;;;;;;;;5096158;28;20229;-66
2023/05/31 13:08:26;;;;;;;6.70;3.20;;;;;;;;;;5093999;28;20464;-66
2023/05/31 13:10:53;;;;;;;6.93;2.60;;;;;;;;;;5094904;28;20220;-66
2023/05/31 13:13:19;;;;;;;6.17;2.87;;;;;;;;;;5096720;28;20177;-66
2023/05/31 13:15:46;;;;;;;7.97;3.30;;;;;;;;;;5095789;28;20581;-66
2023/05/31 13:18:12;;;;;;;5.90;2.93;;;;;;;;;;5095916;28;20177;-67
2023/05/31 13:20:38;;;;;;;8.10;3.50;;;;;;;;;;5096131;28;20188;-66
2023/05/31 13:23:08;;;;;;;7.10;3.30;;;;;;;;;;5095392;28;20627;-66
2023/05/31 13:25:34;;;;;;;8.60;3.43;;;;;;;;;;5095708;28;20193;-65
2023/05/31 13:28:00;;;;;;;5.70;3.07;;;;;;;;;;5095698;28;20184;-65
2023/05/31 13:30:26;;;;;;;5.90;2.90;;;;;;;;;;5095607;28;20587;-66
2023/05/31 13:32:53;;;;;;;6.33;3.20;;;;;;;;;;5094310;28;20188;-66
2023/05/31 13:35:19;;;;;;;4.37;2.70;;;;;;;;;;5095150;28;20227;-66
2023/05/31 13:37:45;;;;;;;7.00;2.67;;;;;;;;;;5094251;28;20173;-65
2023/05/31 13:40:11;;;;;;;7.97;3.30;;;;;;;;;;5095435;28;20590;-66
2023/05/31 13:42:37;;;;;;;6.97;3.37;;;;;;;;;;5095509;28;20166;-66
2023/05/31 13:45:03;;;;;;;7.10;3.60;;;;;;;;;;5095905;28;20770;-66
2023/05/31 13:47:29;;;;;;;7.90;3.10;;;;;;;;;;5095465;28;20177;-66
2023/05/31 13:49:55;;;;;;;6.93;3.50;;;;;;;;;;5093889;28;20185;-66
2023/05/31 13:52:22;;;;;;;7.80;2.80;;;;;;;;;;5095376;28;20548;-66
2023/05/31 13:54:48;;;;;;;8.57;3.07;;;;;;;;;;5095149;28;20213;-66
2023/05/31 13:57:14;;;;;;;6.37;3.00;;;;;;;;;;5095269;28;20677;-66
2023/05/31 13:59:41;;;;;;;7.13;3.17;;;;;;;;;;5095065;28;20614;-66
2023/05/31 14:02:07;;;;;;;5.20;2.83;;;;;;;;;;5094989;28;20169;-66
2023/05/31 14:04:33;;;;;;;4.50;2.90;;;;;;;;;;5094910;28;20204;-65
2023/05/31 14:06:59;;;;;;;7.53;3.60;;;;;;;;;;5093624;28;20249;-66
2023/05/31 14:09:26;;;;;;;9.03;3.13;;;;;;;;;;5095130;28;20692;-66
2023/05/31 14:11:52;;;;;;;9.03;3.33;;;;;;;;;;5095075;28;20177;-66
2023/05/31 14:14:18;;;;;;;7.67;3.40;;;;;;;;;;5094620;28;20693;-67
2023/05/31 14:16:44;;;;;;;4.53;3.13;;;;;;;;;;5093513;28;20184;-66
2023/05/31 14:19:10;;;;;;;5.87;3.23;;;;;;;;;;5094646;28;20174;-66
2023/05/31 14:21:36;;;;;;;5.83;3.60;;;;;;;;;;5093425;28;20530;-66
2023/05/31 14:24:03;;;;;;;6.50;3.43;;;;;;;;;;5094664;28;20219;-66
2023/05/31 14:26:29;;;;;;;18.57;4.50;;;;;;;;;;5094484;28;20197;-66
2023/05/31 14:28:55;;;;;;;12.20;4.03;;;;;;;;;;5093221;28;20188;-66